Time,TemperatureF,DewpointF,PressureIn,WindDirection,WindDirectionDegrees,WindSpeedMPH,WindSpeedGustMPH,Humidity,HourlyPrecipIn,Conditions,Clouds,dailyrainin,SolarRadiationWatts/m^2,SoftwareType,DateUTC
2013-07-15 00:00:00,58.0,56.0,30.14,ESE,123,7.0,-999.0,92,-99.99,,,-99.99,0.120000,,2013-07-15 06:00:00,
2013-07-15 02:00:00,59.0,57.0,30.11,ESE,122,5.0,-999.0,95,-99.99,,,-99.99,0.100000,,2013-07-15 08:00:00,
2013-07-15 02:53:00,59.0,57.0,30.11,ESE,122,5.0,-999.0,95,-99.99,,,-99.99,0.100000,,2013-07-15 08:53:00,
2013-07-15 03:00:00,61.0,59.0,30.09,SE,127,6.0,-999.0,92,-99.99,,,-99.99,0.090000,,2013-07-15 09:00:00,
2013-07-15 04:00:00,62.0,60.0,30.07,SE,129,8.0,-999.0,92,-99.99,,,-99.99,0.090000,,2013-07-15 10:00:00,
2013-07-15 04:53:00,62.0,60.0,30.07,SE,129,8.0,-999.0,92,-99.99,,,-99.99,0.090000,,2013-07-15 10:53:00,
2013-07-15 05:00:00,61.0,60.0,30.05,SE,138,8.0,-999.0,95,-99.99,,,-99.99,0.170000,,2013-07-15 11:00:00,
2013-07-15 05:52:00,61.0,60.0,30.05,SE,138,8.0,-999.0,95,-99.99,,,-99.99,0.170000,,2013-07-15 11:52:00,
2013-07-15 06:00:00,61.0,60.0,30.04,SE,142,8.0,-999.0,97,-99.99,,,-99.99,12.440000,,2013-07-15 12:00:00,
2013-07-15 07:00:00,64.0,62.0,30.03,SE,145,10.0,-999.0,93,-99.99,,,-99.99,96.599998,,2013-07-15 13:00:00,
2013-07-15 08:00:00,68.0,64.0,30.02,SSE,153,11.0,-999.0,85,-99.99,,,-99.99,219.800003,,2013-07-15 14:00:00,
2013-07-15 09:00:00,72.0,64.0,30.00,SSE,161,14.0,-999.0,76,-99.99,,,-99.99,328.200012,,2013-07-15 15:00:00,
2013-07-15 09:53:00,72.0,64.0,30.00,SSE,161,14.0,-999.0,76,-99.99,,,-99.99,328.200012,,2013-07-15 15:53:00,
2013-07-15 10:52:00,74.0,64.0,29.98,SSE,155,15.0,-999.0,70,-99.99,,,-99.99,468.399994,,2013-07-15 16:52:00,
2013-07-15 11:00:00,79.0,65.0,29.96,SSE,151,15.0,-999.0,63,-99.99,,,-99.99,525.299988,,2013-07-15 17:00:00,
2013-07-15 12:00:00,80.0,66.0,29.96,SSE,152,15.0,-999.0,61,-99.99,,,-99.99,488.600006,,2013-07-15 18:00:00,
2013-07-15 14:00:00,84.0,66.0,29.92,SE,144,18.0,-999.0,55,-99.99,,,-99.99,461.399994,,2013-07-15 20:00:00,
2013-07-15 15:00:00,85.0,65.0,29.90,SSE,160,17.0,-999.0,51,-99.99,,,-99.99,698.000000,,2013-07-15 21:00:00,
2013-07-15 16:00:00,86.0,63.0,29.88,SSE,162,13.0,-999.0,47,-99.99,,,-99.99,502.799988,,2013-07-15 22:00:00,
2013-07-15 18:00:00,88.0,62.0,29.86,South,178,9.0,-999.0,43,-99.99,,,-99.99,369.200012,,2013-07-16 00:00:00,
2013-07-15 19:00:00,87.0,65.0,29.85,SSE,162,8.0,-999.0,47,-99.99,,,-99.99,242.100006,,2013-07-16 01:00:00,
2013-07-15 20:00:00,83.0,67.0,29.84,SE,140,7.0,-999.0,57,-99.99,,,-99.99,120.400002,,2013-07-16 02:00:00,
2013-07-15 21:00:00,79.0,66.0,29.85,SE,138,7.0,-999.0,64,-99.99,,,-99.99,21.590000,,2013-07-16 03:00:00,